sensor_id;sensor_type;location;lat;lon;timestamp;temperature;humidity
52125;DHT22;38119;52.710;6.398;2024-01-25T00:02:08;7.80;99.90
52125;DHT22;38119;52.710;6.398;2024-01-25T00:04:33;7.80;99.90
52125;DHT22;38119;52.710;6.398;2024-01-25T00:06:59;7.80;99.90
52125;DHT22;38119;52.710;6.398;2024-01-25T00:09:24;7.70;99.90
52125;DHT22;38119;52.710;6.398;2024-01-25T00:11:50;7.70;99.90
52125;DHT22;38119;52.710;6.398;2024-01-25T00:14:15;7.60;99.90
52125;DHT22;38119;52.710;6.398;2024-01-25T00:16:41;7.60;99.90
52125;DHT22;38119;52.710;6.398;2024-01-25T00:19:07;7.60;99.90
52125;DHT22;38119;52.710;6.398;2024-01-25T00:21:33;7.50;99.90
52125;DHT22;38119;52.710;6.398;2024-01-25T00:23:58;7.50;99.90
52125;DHT22;38119;52.710;6.398;2024-01-25T00:26:24;7.40;99.90
52125;DHT22;38119;52.710;6.398;2024-01-25T00:28:49;7.40;99.90
52125;DHT22;38119;52.710;6.398;2024-01-25T00:31:15;7.40;99.90
52125;DHT22;38119;52.710;6.398;2024-01-25T00:33:40;7.30;99.90
52125;DHT22;38119;52.710;6.398;2024-01-25T00:36:06;7.30;99.90
52125;DHT22;38119;52.710;6.398;2024-01-25T00:38:32;7.30;99.90
52125;DHT22;38119;52.710;6.398;2024-01-25T00:40:58;7.30;99.90
52125;DHT22;38119;52.710;6.398;2024-01-25T00:43:24;7.20;99.90
52125;DHT22;38119;52.710;6.398;2024-01-25T00:45:50;7.20;99.90
52125;DHT22;38119;52.710;6.398;2024-01-25T00:48:16;7.20;99.90
52125;DHT22;38119;52.710;6.398;2024-01-25T00:50:42;7.20;99.90
52125;DHT22;38119;52.710;6.398;2024-01-25T00:53:08;7.10;99.90
52125;DHT22;38119;52.710;6.398;2024-01-25T00:55:34;7.10;99.90
52125;DHT22;38119;52.710;6.398;2024-01-25T00:57:59;7.10;99.90
52125;DHT22;38119;52.710;6.398;2024-01-25T01:00:26;7.00;99.90
52125;DHT22;38119;52.710;6.398;2024-01-25T01:02:53;7.00;99.90
52125;DHT22;38119;52.710;6.398;2024-01-25T01:05:19;7.00;99.90
52125;DHT22;38119;52.710;6.398;2024-01-25T01:07:45;6.90;99.90
52125;DHT22;38119;52.710;6.398;2024-01-25T01:10:10;6.90;99.90
52125;DHT22;38119;52.710;6.398;2024-01-25T01:12:36;6.90;99.90
52125;DHT22;38119;52.710;6.398;2024-01-25T01:15:03;6.90;99.90
52125;DHT22;38119;52.710;6.398;2024-01-25T01:17:29;6.90;99.90
52125;DHT22;38119;52.710;6.398;2024-01-25T01:19:54;6.80;99.90
52125;DHT22;38119;52.710;6.398;2024-01-25T01:22:20;6.80;99.90
52125;DHT22;38119;52.710;6.398;2024-01-25T01:24:45;6.90;99.90
52125;DHT22;38119;52.710;6.398;2024-01-25T01:27:11;6.90;99.90
52125;DHT22;38119;52.710;6.398;2024-01-25T01:29:37;6.90;99.90
52125;DHT22;38119;52.710;6.398;2024-01-25T01:32:02;6.90;99.90
52125;DHT22;38119;52.710;6.398;2024-01-25T01:34:28;6.80;99.90
52125;DHT22;38119;52.710;6.398;2024-01-25T01:36:54;6.80;99.90
52125;DHT22;38119;52.710;6.398;2024-01-25T01:39:19;6.80;99.90
52125;DHT22;38119;52.710;6.398;2024-01-25T01:41:48;6.70;99.90
52125;DHT22;38119;52.710;6.398;2024-01-25T01:44:14;6.70;99.90
52125;DHT22;38119;52.710;6.398;2024-01-25T01:46:40;6.70;99.90
52125;DHT22;38119;52.710;6.398;2024-01-25T01:49:11;6.60;99.90
52125;DHT22;38119;52.710;6.398;2024-01-25T01:51:37;6.70;99.90
52125;DHT22;38119;52.710;6.398;2024-01-25T01:54:06;6.60;99.90
52125;DHT22;38119;52.710;6.398;2024-01-25T01:56:32;6.60;99.90
52125;DHT22;38119;52.710;6.398;2024-01-25T01:59:00;6.60;99.90
52125;DHT22;38119;52.710;6.398;2024-01-25T02:01:26;6.60;99.90
52125;DHT22;38119;52.710;6.398;2024-01-25T02:03:52;6.50;99.90
52125;DHT22;38119;52.710;6.398;2024-01-25T02:06:18;6.50;99.90
52125;DHT22;38119;52.710;6.398;2024-01-25T02:08:45;6.50;99.90
52125;DHT22;38119;52.710;6.398;2024-01-25T02:11:12;6.50;99.90
52125;DHT22;38119;52.710;6.398;2024-01-25T02:13:38;6.50;99.90
52125;DHT22;38119;52.710;6.398;2024-01-25T02:16:04;6.50;99.90
52125;DHT22;38119;52.710;6.398;2024-01-25T02:18:31;6.50;99.90
52125;DHT22;38119;52.710;6.398;2024-01-25T02:20:56;6.50;99.90
52125;DHT22;38119;52.710;6.398;2024-01-25T02:23:22;6.50;99.90
52125;DHT22;38119;52.710;6.398;2024-01-25T02:25:47;6.00;99.90
52125;DHT22;38119;52.710;6.398;2024-01-25T02:28:13;6.50;99.90
52125;DHT22;38119;52.710;6.398;2024-01-25T02:30:38;6.40;99.90
52125;DHT22;38119;52.710;6.398;2024-01-25T02:33:04;6.40;99.90
52125;DHT22;38119;52.710;6.398;2024-01-25T02:35:29;6.40;99.90
52125;DHT22;38119;52.710;6.398;2024-01-25T02:37:55;6.40;99.90
52125;DHT22;38119;52.710;6.398;2024-01-25T02:40:21;6.40;99.90
52125;DHT22;38119;52.710;6.398;2024-01-25T02:42:46;6.30;99.90
52125;DHT22;38119;52.710;6.398;2024-01-25T02:45:12;6.40;99.90
52125;DHT22;38119;52.710;6.398;2024-01-25T02:47:37;6.40;99.90
52125;DHT22;38119;52.710;6.398;2024-01-25T02:50:03;6.30;99.90
52125;DHT22;38119;52.710;6.398;2024-01-25T02:52:29;6.30;99.90
52125;DHT22;38119;52.710;6.398;2024-01-25T02:54:55;6.30;99.90
52125;DHT22;38119;52.710;6.398;2024-01-25T02:57:20;6.20;99.90
52125;DHT22;38119;52.710;6.398;2024-01-25T02:59:46;6.20;99.90
52125;DHT22;38119;52.710;6.398;2024-01-25T03:02:12;6.20;99.90
52125;DHT22;38119;52.710;6.398;2024-01-25T03:04:38;6.20;99.90
52125;DHT22;38119;52.710;6.398;2024-01-25T03:07:03;6.10;99.90
52125;DHT22;38119;52.710;6.398;2024-01-25T03:09:29;6.10;99.90
52125;DHT22;38119;52.710;6.398;2024-01-25T03:11:55;6.10;99.90
52125;DHT22;38119;52.710;6.398;2024-01-25T03:14:20;6.10;99.90
52125;DHT22;38119;52.710;6.398;2024-01-25T03:16:46;6.10;99.90
52125;DHT22;38119;52.710;6.398;2024-01-25T03:19:12;6.10;99.90
52125;DHT22;38119;52.710;6.398;2024-01-25T03:21:38;6.10;99.90
52125;DHT22;38119;52.710;6.398;2024-01-25T03:24:04;6.10;99.90
52125;DHT22;38119;52.710;6.398;2024-01-25T03:26:30;6.10;99.90
52125;DHT22;38119;52.710;6.398;2024-01-25T03:28:55;6.00;99.90
52125;DHT22;38119;52.710;6.398;2024-01-25T03:31:21;6.00;99.90
52125;DHT22;38119;52.710;6.398;2024-01-25T03:33:46;6.00;99.90
52125;DHT22;38119;52.710;6.398;2024-01-25T03:36:15;6.00;99.90
52125;DHT22;38119;52.710;6.398;2024-01-25T03:38:41;6.00;99.90
52125;DHT22;38119;52.710;6.398;2024-01-25T03:41:06;6.00;99.90
52125;DHT22;38119;52.710;6.398;2024-01-25T03:43:32;5.90;99.90
52125;DHT22;38119;52.710;6.398;2024-01-25T03:45:58;6.00;99.90
52125;DHT22;38119;52.710;6.398;2024-01-25T03:48:23;5.90;99.90
52125;DHT22;38119;52.710;6.398;2024-01-25T03:50:49;5.90;99.90
52125;DHT22;38119;52.710;6.398;2024-01-25T03:53:14;5.90;99.90
52125;DHT22;38119;52.710;6.398;2024-01-25T03:55:41;5.80;99.90
52125;DHT22;38119;52.710;6.398;2024-01-25T03:58:06;5.80;99.90
52125;DHT22;38119;52.710;6.398;2024-01-25T04:00:32;5.80;99.90
52125;DHT22;38119;52.710;6.398;2024-01-25T04:02:58;5.70;99.90
52125;DHT22;38119;52.710;6.398;2024-01-25T04:05:23;5.70;99.90
52125;DHT22;38119;52.710;6.398;2024-01-25T04:07:49;5.60;99.90
52125;DHT22;38119;52.710;6.398;2024-01-25T04:10:15;5.60;99.90
52125;DHT22;38119;52.710;6.398;2024-01-25T04:12:40;5.70;99.90
52125;DHT22;38119;52.710;6.398;2024-01-25T04:15:06;5.70;99.90
52125;DHT22;38119;52.710;6.398;2024-01-25T04:17:32;5.70;99.90
52125;DHT22;38119;52.710;6.398;2024-01-25T04:19:57;5.70;99.90
52125;DHT22;38119;52.710;6.398;2024-01-25T04:22:23;5.70;99.90
52125;DHT22;38119;52.710;6.398;2024-01-25T04:24:48;5.70;99.90
52125;DHT22;38119;52.710;6.398;2024-01-25T04:27:15;5.60;99.90
52125;DHT22;38119;52.710;6.398;2024-01-25T04:29:41;5.60;99.90
52125;DHT22;38119;52.710;6.398;2024-01-25T04:32:09;5.60;99.90
52125;DHT22;38119;52.710;6.398;2024-01-25T04:34:36;5.60;99.90
52125;DHT22;38119;52.710;6.398;2024-01-25T04:37:01;5.60;99.90
52125;DHT22;38119;52.710;6.398;2024-01-25T04:39:27;5.60;99.90
52125;DHT22;38119;52.710;6.398;2024-01-25T04:41:53;5.50;99.90
52125;DHT22;38119;52.710;6.398;2024-01-25T04:44:18;5.50;99.90
52125;DHT22;38119;52.710;6.398;2024-01-25T04:46:44;5.50;99.90
52125;DHT22;38119;52.710;6.398;2024-01-25T04:49:10;5.50;99.90
52125;DHT22;38119;52.710;6.398;2024-01-25T04:51:36;5.50;99.90
52125;DHT22;38119;52.710;6.398;2024-01-25T04:54:02;5.40;99.90
52125;DHT22;38119;52.710;6.398;2024-01-25T04:56:28;5.40;99.90
52125;DHT22;38119;52.710;6.398;2024-01-25T04:58:54;5.40;99.90
52125;DHT22;38119;52.710;6.398;2024-01-25T05:01:19;5.40;99.90
52125;DHT22;38119;52.710;6.398;2024-01-25T05:03:45;5.40;99.90
52125;DHT22;38119;52.710;6.398;2024-01-25T05:06:10;5.40;99.90
52125;DHT22;38119;52.710;6.398;2024-01-25T05:08:36;5.40;99.90
52125;DHT22;38119;52.710;6.398;2024-01-25T05:11:01;5.40;99.90
52125;DHT22;38119;52.710;6.398;2024-01-25T05:13:28;5.40;99.90
52125;DHT22;38119;52.710;6.398;2024-01-25T05:15:53;5.40;99.90
52125;DHT22;38119;52.710;6.398;2024-01-25T05:18:19;5.30;99.90
52125;DHT22;38119;52.710;6.398;2024-01-25T05:20:45;5.30;99.90
52125;DHT22;38119;52.710;6.398;2024-01-25T05:23:10;5.30;99.90
52125;DHT22;38119;52.710;6.398;2024-01-25T05:25:36;5.30;99.90
52125;DHT22;38119;52.710;6.398;2024-01-25T05:28:01;5.20;99.90
52125;DHT22;38119;52.710;6.398;2024-01-25T05:30:27;5.20;99.90
52125;DHT22;38119;52.710;6.398;2024-01-25T05:32:53;5.20;99.90
52125;DHT22;38119;52.710;6.398;2024-01-25T05:35:19;5.20;99.90
52125;DHT22;38119;52.710;6.398;2024-01-25T05:37:45;5.20;99.90
52125;DHT22;38119;52.710;6.398;2024-01-25T05:40:11;5.20;99.90
52125;DHT22;38119;52.710;6.398;2024-01-25T05:42:37;5.20;99.90
52125;DHT22;38119;52.710;6.398;2024-01-25T05:45:03;5.10;99.90
52125;DHT22;38119;52.710;6.398;2024-01-25T05:47:29;5.10;99.90
52125;DHT22;38119;52.710;6.398;2024-01-25T05:49:55;5.10;99.90
52125;DHT22;38119;52.710;6.398;2024-01-25T05:52:21;5.10;99.90
52125;DHT22;38119;52.710;6.398;2024-01-25T05:54:47;5.10;99.90
52125;DHT22;38119;52.710;6.398;2024-01-25T05:57:14;5.10;99.90
52125;DHT22;38119;52.710;6.398;2024-01-25T05:59:40;5.10;99.90
52125;DHT22;38119;52.710;6.398;2024-01-25T06:02:05;5.00;99.90
52125;DHT22;38119;52.710;6.398;2024-01-25T06:04:31;5.00;99.90
52125;DHT22;38119;52.710;6.398;2024-01-25T06:06:56;5.00;99.90
52125;DHT22;38119;52.710;6.398;2024-01-25T06:09:23;5.00;99.90
52125;DHT22;38119;52.710;6.398;2024-01-25T06:11:50;4.90;99.90
52125;DHT22;38119;52.710;6.398;2024-01-25T06:14:16;4.90;99.90
52125;DHT22;38119;52.710;6.398;2024-01-25T06:16:41;4.90;99.90
52125;DHT22;38119;52.710;6.398;2024-01-25T06:19:07;4.80;99.90
52125;DHT22;38119;52.710;6.398;2024-01-25T06:21:33;4.70;99.90
52125;DHT22;38119;52.710;6.398;2024-01-25T06:24:01;4.70;99.90
52125;DHT22;38119;52.710;6.398;2024-01-25T06:26:27;4.70;99.90
52125;DHT22;38119;52.710;6.398;2024-01-25T06:28:52;4.60;99.90
52125;DHT22;38119;52.710;6.398;2024-01-25T06:31:18;4.60;99.90
52125;DHT22;38119;52.710;6.398;2024-01-25T06:33:44;4.70;99.90
52125;DHT22;38119;52.710;6.398;2024-01-25T06:36:12;4.60;99.90
52125;DHT22;38119;52.710;6.398;2024-01-25T06:38:40;4.70;99.90
52125;DHT22;38119;52.710;6.398;2024-01-25T06:41:06;4.60;99.90
52125;DHT22;38119;52.710;6.398;2024-01-25T06:43:32;4.60;99.90
52125;DHT22;38119;52.710;6.398;2024-01-25T06:45:57;4.60;99.90
52125;DHT22;38119;52.710;6.398;2024-01-25T06:48:23;4.60;99.90
52125;DHT22;38119;52.710;6.398;2024-01-25T06:50:49;4.60;99.90
52125;DHT22;38119;52.710;6.398;2024-01-25T06:53:16;4.60;99.90
52125;DHT22;38119;52.710;6.398;2024-01-25T06:55:42;4.60;99.90
52125;DHT22;38119;52.710;6.398;2024-01-25T06:58:07;4.60;99.90
52125;DHT22;38119;52.710;6.398;2024-01-25T07:00:33;4.60;99.90
52125;DHT22;38119;52.710;6.398;2024-01-25T07:02:59;4.60;99.90
52125;DHT22;38119;52.710;6.398;2024-01-25T07:05:24;4.60;99.90
52125;DHT22;38119;52.710;6.398;2024-01-25T07:07:50;4.60;99.90
52125;DHT22;38119;52.710;6.398;2024-01-25T07:10:15;4.60;99.90
52125;DHT22;38119;52.710;6.398;2024-01-25T07:12:41;4.60;99.90
52125;DHT22;38119;52.710;6.398;2024-01-25T07:15:07;4.60;99.90
52125;DHT22;38119;52.710;6.398;2024-01-25T07:17:33;4.50;99.90
52125;DHT22;38119;52.710;6.398;2024-01-25T07:19:58;4.50;99.90
52125;DHT22;38119;52.710;6.398;2024-01-25T07:22:24;4.50;99.90
52125;DHT22;38119;52.710;6.398;2024-01-25T07:24:50;4.50;99.90
52125;DHT22;38119;52.710;6.398;2024-01-25T07:27:15;4.50;99.90
52125;DHT22;38119;52.710;6.398;2024-01-25T07:29:43;4.50;99.90
52125;DHT22;38119;52.710;6.398;2024-01-25T07:32:10;4.50;99.90
52125;DHT22;38119;52.710;6.398;2024-01-25T07:34:36;4.50;99.90
52125;DHT22;38119;52.710;6.398;2024-01-25T07:37:02;4.50;99.90
52125;DHT22;38119;52.710;6.398;2024-01-25T07:39:28;4.50;99.90
52125;DHT22;38119;52.710;6.398;2024-01-25T07:41:53;4.50;99.90
52125;DHT22;38119;52.710;6.398;2024-01-25T07:44:19;4.50;99.90
52125;DHT22;38119;52.710;6.398;2024-01-25T07:46:45;4.40;99.90
52125;DHT22;38119;52.710;6.398;2024-01-25T07:49:10;4.40;99.90
52125;DHT22;38119;52.710;6.398;2024-01-25T07:51:36;4.40;99.90
52125;DHT22;38119;52.710;6.398;2024-01-25T07:54:01;4.30;99.90
52125;DHT22;38119;52.710;6.398;2024-01-25T07:56:27;4.30;99.90
52125;DHT22;38119;52.710;6.398;2024-01-25T07:58:53;4.30;99.90
52125;DHT22;38119;52.710;6.398;2024-01-25T08:01:19;4.30;99.90
52125;DHT22;38119;52.710;6.398;2024-01-25T08:03:45;4.30;99.90
52125;DHT22;38119;52.710;6.398;2024-01-25T08:06:10;4.30;99.90
52125;DHT22;38119;52.710;6.398;2024-01-25T08:08:36;4.30;99.90
52125;DHT22;38119;52.710;6.398;2024-01-25T08:11:02;4.40;99.90
52125;DHT22;38119;52.710;6.398;2024-01-25T08:13:29;4.40;99.90
52125;DHT22;38119;52.710;6.398;2024-01-25T08:15:56;4.40;99.90
52125;DHT22;38119;52.710;6.398;2024-01-25T08:18:22;4.40;99.90
52125;DHT22;38119;52.710;6.398;2024-01-25T08:20:48;4.40;99.90
52125;DHT22;38119;52.710;6.398;2024-01-25T08:23:14;4.50;99.90
52125;DHT22;38119;52.710;6.398;2024-01-25T08:25:41;4.40;99.90
52125;DHT22;38119;52.710;6.398;2024-01-25T08:28:06;4.50;99.90
52125;DHT22;38119;52.710;6.398;2024-01-25T08:30:32;4.50;99.90
52125;DHT22;38119;52.710;6.398;2024-01-25T08:32:58;4.50;99.90
52125;DHT22;38119;52.710;6.398;2024-01-25T08:35:24;4.50;99.90
52125;DHT22;38119;52.710;6.398;2024-01-25T08:37:50;4.60;99.90
52125;DHT22;38119;52.710;6.398;2024-01-25T08:40:16;4.60;99.90
52125;DHT22;38119;52.710;6.398;2024-01-25T08:42:41;4.60;99.90
52125;DHT22;38119;52.710;6.398;2024-01-25T08:45:07;4.60;99.90
52125;DHT22;38119;52.710;6.398;2024-01-25T08:47:37;4.60;99.90
52125;DHT22;38119;52.710;6.398;2024-01-25T08:50:03;4.70;99.90
52125;DHT22;38119;52.710;6.398;2024-01-25T08:52:29;4.70;99.90
52125;DHT22;38119;52.710;6.398;2024-01-25T08:54:55;4.70;99.90
52125;DHT22;38119;52.710;6.398;2024-01-25T08:57:20;4.80;99.90
52125;DHT22;38119;52.710;6.398;2024-01-25T08:59:46;4.80;99.90
52125;DHT22;38119;52.710;6.398;2024-01-25T09:02:12;4.80;99.90
52125;DHT22;38119;52.710;6.398;2024-01-25T09:04:37;4.90;99.90
52125;DHT22;38119;52.710;6.398;2024-01-25T09:07:03;4.90;99.90
52125;DHT22;38119;52.710;6.398;2024-01-25T09:09:29;4.90;99.90
52125;DHT22;38119;52.710;6.398;2024-01-25T09:11:54;5.00;99.90
52125;DHT22;38119;52.710;6.398;2024-01-25T09:14:20;5.00;99.90
52125;DHT22;38119;52.710;6.398;2024-01-25T09:16:47;5.00;99.90
52125;DHT22;38119;52.710;6.398;2024-01-25T09:19:12;5.10;99.90
52125;DHT22;38119;52.710;6.398;2024-01-25T09:21:39;5.10;99.90
52125;DHT22;38119;52.710;6.398;2024-01-25T09:24:07;5.10;99.90
52125;DHT22;38119;52.710;6.398;2024-01-25T09:26:33;5.20;99.90
52125;DHT22;38119;52.710;6.398;2024-01-25T09:28:59;5.20;99.90
52125;DHT22;38119;52.710;6.398;2024-01-25T09:31:24;5.30;99.90
52125;DHT22;38119;52.710;6.398;2024-01-25T09:33:50;5.30;99.90
52125;DHT22;38119;52.710;6.398;2024-01-25T09:36:16;5.40;99.90
52125;DHT22;38119;52.710;6.398;2024-01-25T09:38:42;5.40;99.90
52125;DHT22;38119;52.710;6.398;2024-01-25T09:41:08;5.40;99.90
52125;DHT22;38119;52.710;6.398;2024-01-25T09:43:34;5.50;99.90
52125;DHT22;38119;52.710;6.398;2024-01-25T09:46:00;5.60;99.90
52125;DHT22;38119;52.710;6.398;2024-01-25T09:48:27;5.60;99.90
52125;DHT22;38119;52.710;6.398;2024-01-25T09:50:55;5.70;99.90
52125;DHT22;38119;52.710;6.398;2024-01-25T09:53:22;5.70;99.90
52125;DHT22;38119;52.710;6.398;2024-01-25T09:55:56;5.70;99.90
52125;DHT22;38119;52.710;6.398;2024-01-25T09:58:24;5.70;99.90
52125;DHT22;38119;52.710;6.398;2024-01-25T10:00:51;5.70;99.90
52125;DHT22;38119;52.710;6.398;2024-01-25T10:03:16;5.80;99.90
52125;DHT22;38119;52.710;6.398;2024-01-25T10:05:42;5.80;99.90
52125;DHT22;38119;52.710;6.398;2024-01-25T10:08:12;5.80;99.90
52125;DHT22;38119;52.710;6.398;2024-01-25T10:10:38;5.90;99.90
52125;DHT22;38119;52.710;6.398;2024-01-25T10:13:04;5.90;99.90
52125;DHT22;38119;52.710;6.398;2024-01-25T10:15:30;6.00;99.90
52125;DHT22;38119;52.710;6.398;2024-01-25T10:17:56;6.00;99.90
52125;DHT22;38119;52.710;6.398;2024-01-25T10:20:23;6.00;99.90
52125;DHT22;38119;52.710;6.398;2024-01-25T10:22:50;6.10;99.90
52125;DHT22;38119;52.710;6.398;2024-01-25T10:25:17;6.10;99.90
52125;DHT22;38119;52.710;6.398;2024-01-25T10:27:44;6.10;99.90
52125;DHT22;38119;52.710;6.398;2024-01-25T10:30:11;6.20;99.90
52125;DHT22;38119;52.710;6.398;2024-01-25T10:32:38;6.20;99.90
52125;DHT22;38119;52.710;6.398;2024-01-25T10:35:05;6.20;99.90
52125;DHT22;38119;52.710;6.398;2024-01-25T10:37:33;6.30;99.90
52125;DHT22;38119;52.710;6.398;2024-01-25T10:39:59;6.30;99.90
52125;DHT22;38119;52.710;6.398;2024-01-25T10:42:25;6.30;99.90
52125;DHT22;38119;52.710;6.398;2024-01-25T10:44:50;6.30;99.90
52125;DHT22;38119;52.710;6.398;2024-01-25T10:47:17;6.30;99.90
52125;DHT22;38119;52.710;6.398;2024-01-25T10:49:43;6.30;99.90
52125;DHT22;38119;52.710;6.398;2024-01-25T10:52:09;6.30;99.90
52125;DHT22;38119;52.710;6.398;2024-01-25T10:54:35;6.30;99.90
52125;DHT22;38119;52.710;6.398;2024-01-25T10:57:01;6.40;99.90
52125;DHT22;38119;52.710;6.398;2024-01-25T10:59:28;6.40;99.90
52125;DHT22;38119;52.710;6.398;2024-01-25T11:01:54;6.50;99.90
52125;DHT22;38119;52.710;6.398;2024-01-25T11:04:20;6.60;99.90
52125;DHT22;38119;52.710;6.398;2024-01-25T11:06:46;6.60;99.90
52125;DHT22;38119;52.710;6.398;2024-01-25T11:09:18;6.60;99.90
52125;DHT22;38119;52.710;6.398;2024-01-25T11:11:46;6.60;99.90
52125;DHT22;38119;52.710;6.398;2024-01-25T11:14:13;6.70;99.90
52125;DHT22;38119;52.710;6.398;2024-01-25T11:16:40;6.70;99.90
52125;DHT22;38119;52.710;6.398;2024-01-25T11:19:19;6.70;99.90
52125;DHT22;38119;52.710;6.398;2024-01-25T11:21:47;6.80;99.90
52125;DHT22;38119;52.710;6.398;2024-01-25T11:24:23;6.80;99.90
52125;DHT22;38119;52.710;6.398;2024-01-25T11:26:50;6.80;99.90
52125;DHT22;38119;52.710;6.398;2024-01-25T11:29:17;6.90;99.90
52125;DHT22;38119;52.710;6.398;2024-01-25T11:31:48;6.90;99.90
52125;DHT22;38119;52.710;6.398;2024-01-25T11:34:14;7.00;99.90
52125;DHT22;38119;52.710;6.398;2024-01-25T11:36:47;7.00;99.90
52125;DHT22;38119;52.710;6.398;2024-01-25T11:39:14;7.10;99.90
52125;DHT22;38119;52.710;6.398;2024-01-25T11:41:42;7.10;99.90
52125;DHT22;38119;52.710;6.398;2024-01-25T11:44:09;7.20;99.90
52125;DHT22;38119;52.710;6.398;2024-01-25T11:46:35;7.30;99.90
52125;DHT22;38119;52.710;6.398;2024-01-25T11:49:01;7.30;99.90
52125;DHT22;38119;52.710;6.398;2024-01-25T11:51:27;7.40;99.90
52125;DHT22;38119;52.710;6.398;2024-01-25T11:53:53;7.40;99.90
52125;DHT22;38119;52.710;6.398;2024-01-25T11:56:29;7.50;99.90
52125;DHT22;38119;52.710;6.398;2024-01-25T11:58:56;7.50;99.90
52125;DHT22;38119;52.710;6.398;2024-01-25T12:01:26;7.50;99.90
52125;DHT22;38119;52.710;6.398;2024-01-25T12:03:53;7.60;99.90
52125;DHT22;38119;52.710;6.398;2024-01-25T12:06:19;7.70;99.90
52125;DHT22;38119;52.710;6.398;2024-01-25T12:08:45;7.80;99.90
52125;DHT22;38119;52.710;6.398;2024-01-25T12:11:14;7.80;99.90
52125;DHT22;38119;52.710;6.398;2024-01-25T12:13:43;7.90;99.90
52125;DHT22;38119;52.710;6.398;2024-01-25T12:16:09;7.90;99.90
52125;DHT22;38119;52.710;6.398;2024-01-25T12:18:36;7.90;99.90
52125;DHT22;38119;52.710;6.398;2024-01-25T12:21:03;7.80;99.90
52125;DHT22;38119;52.710;6.398;2024-01-25T12:23:39;7.80;99.90
52125;DHT22;38119;52.710;6.398;2024-01-25T12:26:06;7.80;99.90
52125;DHT22;38119;52.710;6.398;2024-01-25T12:28:32;7.80;99.90
52125;DHT22;38119;52.710;6.398;2024-01-25T12:30:59;7.80;99.90
52125;DHT22;38119;52.710;6.398;2024-01-25T12:33:26;7.80;99.90
52125;DHT22;38119;52.710;6.398;2024-01-25T12:35:51;7.90;99.90
52125;DHT22;38119;52.710;6.398;2024-01-25T12:38:17;7.90;99.90
52125;DHT22;38119;52.710;6.398;2024-01-25T12:40:47;7.90;99.90
52125;DHT22;38119;52.710;6.398;2024-01-25T12:43:15;8.00;99.90
52125;DHT22;38119;52.710;6.398;2024-01-25T12:45:40;8.10;99.90
52125;DHT22;38119;52.710;6.398;2024-01-25T12:48:06;8.20;99.90
52125;DHT22;38119;52.710;6.398;2024-01-25T12:50:33;8.30;99.90
52125;DHT22;38119;52.710;6.398;2024-01-25T12:52:59;8.40;99.90
52125;DHT22;38119;52.710;6.398;2024-01-25T12:55:25;8.50;99.90
52125;DHT22;38119;52.710;6.398;2024-01-25T12:57:51;8.50;99.90
52125;DHT22;38119;52.710;6.398;2024-01-25T13:00:17;8.50;99.90
52125;DHT22;38119;52.710;6.398;2024-01-25T13:02:42;8.50;99.90
52125;DHT22;38119;52.710;6.398;2024-01-25T13:05:08;8.50;99.90
52125;DHT22;38119;52.710;6.398;2024-01-25T13:07:33;8.60;99.90
52125;DHT22;38119;52.710;6.398;2024-01-25T13:09:59;8.60;99.90
52125;DHT22;38119;52.710;6.398;2024-01-25T13:12:25;8.60;99.90
52125;DHT22;38119;52.710;6.398;2024-01-25T13:14:50;8.60;99.90
52125;DHT22;38119;52.710;6.398;2024-01-25T13:17:16;8.60;99.90
52125;DHT22;38119;52.710;6.398;2024-01-25T13:19:41;8.60;99.90
52125;DHT22;38119;52.710;6.398;2024-01-25T13:22:07;8.60;99.90
52125;DHT22;38119;52.710;6.398;2024-01-25T13:24:32;8.60;99.90
52125;DHT22;38119;52.710;6.398;2024-01-25T13:26:58;8.60;99.90
52125;DHT22;38119;52.710;6.398;2024-01-25T13:29:23;8.60;99.90
52125;DHT22;38119;52.710;6.398;2024-01-25T13:31:49;8.60;99.90
52125;DHT22;38119;52.710;6.398;2024-01-25T13:34:15;8.50;99.90
52125;DHT22;38119;52.710;6.398;2024-01-25T13:36:40;8.50;99.90
52125;DHT22;38119;52.710;6.398;2024-01-25T13:39:06;8.60;99.90
52125;DHT22;38119;52.710;6.398;2024-01-25T13:41:32;8.50;99.90
52125;DHT22;38119;52.710;6.398;2024-01-25T13:43:57;8.60;99.90
52125;DHT22;38119;52.710;6.398;2024-01-25T13:46:23;8.60;99.90
52125;DHT22;38119;52.710;6.398;2024-01-25T13:48:48;8.60;99.90
52125;DHT22;38119;52.710;6.398;2024-01-25T13:51:14;8.50;99.90
52125;DHT22;38119;52.710;6.398;2024-01-25T13:53:39;8.60;99.90
52125;DHT22;38119;52.710;6.398;2024-01-25T13:56:05;8.60;99.90
52125;DHT22;38119;52.710;6.398;2024-01-25T13:58:31;8.50;99.90
52125;DHT22;38119;52.710;6.398;2024-01-25T14:00:56;8.50;99.90
52125;DHT22;38119;52.710;6.398;2024-01-25T14:03:22;8.50;99.90
52125;DHT22;38119;52.710;6.398;2024-01-25T14:05:47;8.50;99.90
52125;DHT22;38119;52.710;6.398;2024-01-25T14:08:13;8.50;99.90
52125;DHT22;38119;52.710;6.398;2024-01-25T14:10:38;8.50;99.90
52125;DHT22;38119;52.710;6.398;2024-01-25T14:13:04;8.50;99.90
52125;DHT22;38119;52.710;6.398;2024-01-25T14:15:30;8.50;99.90
52125;DHT22;38119;52.710;6.398;2024-01-25T14:17:55;8.40;99.90
52125;DHT22;38119;52.710;6.398;2024-01-25T14:20:21;8.40;99.90
52125;DHT22;38119;52.710;6.398;2024-01-25T14:22:48;8.40;99.90
52125;DHT22;38119;52.710;6.398;2024-01-25T14:25:14;8.30;99.90
52125;DHT22;38119;52.710;6.398;2024-01-25T14:27:39;8.30;99.90
52125;DHT22;38119;52.710;6.398;2024-01-25T14:30:05;8.30;99.90
52125;DHT22;38119;52.710;6.398;2024-01-25T14:32:32;8.20;99.90
52125;DHT22;38119;52.710;6.398;2024-01-25T14:34:57;8.20;99.90
52125;DHT22;38119;52.710;6.398;2024-01-25T14:37:23;8.10;99.90
52125;DHT22;38119;52.710;6.398;2024-01-25T14:39:49;8.10;99.90
52125;DHT22;38119;52.710;6.398;2024-01-25T14:42:14;8.10;99.90
52125;DHT22;38119;52.710;6.398;2024-01-25T14:44:43;8.00;99.90
52125;DHT22;38119;52.710;6.398;2024-01-25T14:47:08;8.00;99.90
52125;DHT22;38119;52.710;6.398;2024-01-25T14:49:34;8.00;99.90
52125;DHT22;38119;52.710;6.398;2024-01-25T14:52:00;8.00;99.90
52125;DHT22;38119;52.710;6.398;2024-01-25T14:54:26;8.00;99.90
52125;DHT22;38119;52.710;6.398;2024-01-25T14:56:51;8.00;99.90
52125;DHT22;38119;52.710;6.398;2024-01-25T14:59:17;7.90;99.90
52125;DHT22;38119;52.710;6.398;2024-01-25T15:01:46;7.90;99.90
52125;DHT22;38119;52.710;6.398;2024-01-25T15:04:11;7.90;99.90
52125;DHT22;38119;52.710;6.398;2024-01-25T15:06:37;7.90;99.90
52125;DHT22;38119;52.710;6.398;2024-01-25T15:09:02;7.90;99.90
52125;DHT22;38119;52.710;6.398;2024-01-25T15:11:28;7.90;99.90
52125;DHT22;38119;52.710;6.398;2024-01-25T15:13:54;7.90;99.90
52125;DHT22;38119;52.710;6.398;2024-01-25T15:16:19;7.90;99.90
52125;DHT22;38119;52.710;6.398;2024-01-25T15:18:45;7.90;99.90
52125;DHT22;38119;52.710;6.398;2024-01-25T15:21:11;7.80;99.90
52125;DHT22;38119;52.710;6.398;2024-01-25T15:23:36;7.90;99.90
52125;DHT22;38119;52.710;6.398;2024-01-25T15:26:03;7.80;99.90
52125;DHT22;38119;52.710;6.398;2024-01-25T15:28:29;7.80;99.90
52125;DHT22;38119;52.710;6.398;2024-01-25T15:30:55;7.80;99.90
52125;DHT22;38119;52.710;6.398;2024-01-25T15:33:20;7.80;99.90
52125;DHT22;38119;52.710;6.398;2024-01-25T15:35:46;7.80;99.90
52125;DHT22;38119;52.710;6.398;2024-01-25T15:38:11;7.80;99.90